createdAt,value
2023-03-22T00:00:22.313Z,14.23
2023-03-22T00:03:17.380Z,13.48
2023-03-22T00:06:14.395Z,14.65
2023-03-22T00:08:48.434Z,11.05
2023-03-22T00:11:36.302Z,12.93
2023-03-22T00:14:18.272Z,12.23
2023-03-22T00:17:05.283Z,12.95
2023-03-22T00:19:48.289Z,13.77
2023-03-22T00:22:42.267Z,13.05
2023-03-22T00:25:30.308Z,14.27
2023-03-22T00:28:03.556Z,15.48
2023-03-22T00:30:58.280Z,13.02
2023-03-22T00:33:32.354Z,11.63
2023-03-22T00:36:19.270Z,11.85
2023-03-22T00:38:52.427Z,12.32
2023-03-22T00:41:39.293Z,11.07
2023-03-22T00:44:12.457Z,11.68
2023-03-22T00:47:00.310Z,12.27
2023-03-22T00:49:41.294Z,11.73
2023-03-22T00:52:39.303Z,11.77
2023-03-22T00:55:26.324Z,11.95
2023-03-22T00:58:00.442Z,11.43
2023-03-22T01:00:47.296Z,10.98
2023-03-22T01:03:22.378Z,10.60
2023-03-22T01:06:09.351Z,11.77
2023-03-22T01:08:43.401Z,12.10
2023-03-22T01:11:31.348Z,11.05
2023-03-22T01:14:05.416Z,10.57
2023-03-22T01:16:52.313Z,10.93
2023-03-22T01:19:35.281Z,10.57
2023-03-22T01:22:22.263Z,10.13
2023-03-22T01:25:03.278Z,10.35
2023-03-22T01:27:50.283Z,10.40
2023-03-22T01:30:24.382Z,9.27
2023-03-22T01:33:14.285Z,10.18
2023-03-22T01:35:56.344Z,10.90
2023-03-22T01:38:51.276Z,9.45
2023-03-22T01:41:41.315Z,9.85
2023-03-22T01:44:24.282Z,10.63
2023-03-22T01:47:11.243Z,10.75
2023-03-22T01:49:46.429Z,10.38
2023-03-22T01:52:35.279Z,10.50
2023-03-22T01:55:16.290Z,10.15
2023-03-22T01:58:03.307Z,9.48
2023-03-22T02:00:37.705Z,9.80
2023-03-22T02:03:29.326Z,9.25
2023-03-22T02:06:10.568Z,8.82
2023-03-22T02:08:53.296Z,8.25
2023-03-22T02:11:38.575Z,9.57
2023-03-22T02:14:35.277Z,8.80
2023-03-22T02:17:33.375Z,9.50
2023-03-22T02:20:53.272Z,9.48
2023-03-22T02:24:08.265Z,9.43
2023-03-22T02:26:55.015Z,9.07
2023-03-22T02:29:52.297Z,9.10
2023-03-22T02:33:14.284Z,8.98
2023-03-22T02:36:20.453Z,9.07
2023-03-22T02:39:14.516Z,8.55
2023-03-22T02:42:22.295Z,9.52
2023-03-22T02:45:01.478Z,8.65
2023-03-22T02:48:18.255Z,9.10
2023-03-22T02:50:58.345Z,9.85
2023-03-22T02:53:44.254Z,9.10
2023-03-22T02:56:32.367Z,7.93
2023-03-22T02:59:15.290Z,7.40
2023-03-22T03:01:58.436Z,7.60
2023-03-22T03:04:43.330Z,7.15
2023-03-22T03:07:34.292Z,7.20
2023-03-22T03:10:16.290Z,7.38
2023-03-22T03:13:13.275Z,7.32
2023-03-22T03:16:10.280Z,6.88
2023-03-22T03:19:05.252Z,6.35
2023-03-22T03:21:54.365Z,6.70
2023-03-22T03:24:40.238Z,6.95
2023-03-22T03:27:24.322Z,7.20
2023-03-22T03:30:11.251Z,7.40
2023-03-22T03:33:06.266Z,7.80
2023-03-22T03:35:44.089Z,8.23
2023-03-22T03:38:35.250Z,8.10
2023-03-22T03:41:19.255Z,7.70
2023-03-22T03:44:01.341Z,8.43
2023-03-22T03:46:43.263Z,7.60
2023-03-22T03:49:30.240Z,8.48
2023-03-22T03:52:05.296Z,8.88
2023-03-22T03:54:52.275Z,8.27
2023-03-22T03:57:25.778Z,8.57
2023-03-22T04:00:12.242Z,8.52
2023-03-22T04:02:47.225Z,8.98
2023-03-22T04:05:34.206Z,9.05
2023-03-22T04:08:08.451Z,8.30
2023-03-22T04:10:55.213Z,8.40
2023-03-22T04:13:42.227Z,8.05
2023-03-22T04:16:31.318Z,6.57
2023-03-22T04:19:06.352Z,6.53
2023-03-22T04:21:53.324Z,6.72
2023-03-22T04:24:35.284Z,6.97
2023-03-22T04:27:30.235Z,6.55
2023-03-22T04:30:25.195Z,7.15
2023-03-22T04:33:05.238Z,7.22
2023-03-22T04:36:04.598Z,7.22
2023-03-22T04:38:58.231Z,6.95
2023-03-22T04:41:45.240Z,7.40
2023-03-22T04:44:19.437Z,6.90
2023-03-22T04:47:06.286Z,7.10
2023-03-22T04:49:47.214Z,6.40
2023-03-22T04:52:42.268Z,7.28
2023-03-22T04:55:36.240Z,7.22
2023-03-22T04:58:23.181Z,6.88
2023-03-22T05:01:05.208Z,6.80
2023-03-22T05:03:59.198Z,6.93
2023-03-22T05:06:46.286Z,7.35
2023-03-22T05:09:28.275Z,6.80
2023-03-22T05:12:08.219Z,6.95
2023-03-22T05:15:02.176Z,6.95
2023-03-22T05:17:49.228Z,7.05
2023-03-22T05:20:23.356Z,7.10
2023-03-22T05:23:11.176Z,6.22
2023-03-22T05:25:46.837Z,6.15
2023-03-22T05:28:35.200Z,5.70
2023-03-22T05:31:17.296Z,5.57
2023-03-22T05:34:04.228Z,6.45
2023-03-22T05:36:45.228Z,6.78
2023-03-22T05:39:39.256Z,6.45
2023-03-22T05:42:27.294Z,6.13
2023-03-22T05:45:01.313Z,6.43
2023-03-22T05:47:48.226Z,6.43
2023-03-22T05:50:24.362Z,7.30
2023-03-22T05:53:11.220Z,6.80
2023-03-22T05:55:45.300Z,7.10
2023-03-22T05:58:37.249Z,9.18
2023-03-22T06:01:24.258Z,8.05
2023-03-22T06:04:18.213Z,7.30
2023-03-22T06:07:12.261Z,6.93
2023-03-22T06:10:06.204Z,7.43
2023-03-22T06:13:02.277Z,7.57
2023-03-22T06:15:51.408Z,6.63
2023-03-22T06:18:25.479Z,6.18
2023-03-22T06:21:13.196Z,5.78
2023-03-22T06:23:53.257Z,6.18
2023-03-22T06:26:47.219Z,6.03
2023-03-22T06:29:34.188Z,6.20
2023-03-22T06:32:09.281Z,5.65
2023-03-22T06:34:56.224Z,6.22
2023-03-22T06:37:32.590Z,6.65
2023-03-22T06:40:19.227Z,5.70
2023-03-22T06:42:54.430Z,6.18
2023-03-22T06:45:42.331Z,5.88
2023-03-22T06:48:24.252Z,5.95
2023-03-22T06:54:31.706Z,5.43
2023-03-22T06:56:59.091Z,5.82
2023-03-22T06:59:26.178Z,4.82
2023-03-22T07:01:53.412Z,5.65
2023-03-22T07:04:21.752Z,6.10
2023-03-22T07:06:49.146Z,5.93
2023-03-22T07:09:16.437Z,6.60
2023-03-22T07:11:43.839Z,5.60
2023-03-22T07:14:11.370Z,5.78
2023-03-22T07:16:38.666Z,6.10
2023-03-22T07:19:05.967Z,7.22
2023-03-22T07:21:37.649Z,5.95
2023-03-22T07:24:06.761Z,4.70
2023-03-22T07:26:37.664Z,4.90
2023-03-22T07:29:04.652Z,5.10
2023-03-22T07:31:35.712Z,4.70
2023-03-22T07:34:03.593Z,4.93
2023-03-22T07:36:30.811Z,5.27
2023-03-22T07:38:59.196Z,5.10
2023-03-22T07:41:28.756Z,5.15
2023-03-22T07:44:07.910Z,5.55
2023-03-22T07:46:44.349Z,5.43
2023-03-22T07:49:11.422Z,5.32
2023-03-22T07:51:38.968Z,5.80
2023-03-22T07:54:07.997Z,5.78
2023-03-22T07:56:35.883Z,5.10
2023-03-22T07:59:04.761Z,5.22
2023-03-22T08:01:32.081Z,4.90
2023-03-22T08:03:59.798Z,5.75
2023-03-22T08:06:27.131Z,5.13
2023-03-22T08:08:54.099Z,5.10
2023-03-22T08:11:22.755Z,5.03
2023-03-22T08:13:50.165Z,5.40
2023-03-22T08:16:17.655Z,5.55
2023-03-22T08:18:45.466Z,5.18
2023-03-22T08:21:13.011Z,5.35
2023-03-22T08:23:43.210Z,5.40
2023-03-22T08:26:13.567Z,5.20
2023-03-22T08:28:42.063Z,5.22
2023-03-22T08:31:15.066Z,5.18
2023-03-22T08:33:43.099Z,5.38
2023-03-22T08:36:13.726Z,5.30
2023-03-22T08:38:42.388Z,4.93
2023-03-22T08:41:09.865Z,5.10
2023-03-22T08:43:36.716Z,6.07
2023-03-22T08:46:06.102Z,6.13
2023-03-22T08:48:34.756Z,5.60
2023-03-22T08:53:29.591Z,5.15
2023-03-22T08:55:58.211Z,6.32
2023-03-22T08:58:25.282Z,5.57
2023-03-22T09:00:52.768Z,5.03
2023-03-22T09:03:22.866Z,4.70
2023-03-22T09:05:50.129Z,4.60
2023-03-22T09:08:19.486Z,4.40
2023-03-22T09:10:51.276Z,4.38
2023-03-22T09:13:19.055Z,5.20
2023-03-22T09:15:46.778Z,4.50
2023-03-22T09:18:14.458Z,4.88
2023-03-22T09:20:44.793Z,4.50
2023-03-22T09:23:12.057Z,5.15
2023-03-22T09:25:42.638Z,4.88
2023-03-22T09:28:10.039Z,4.88
2023-03-22T09:30:38.103Z,4.70
2023-03-22T09:33:06.719Z,5.00
2023-03-22T09:35:34.241Z,4.90
2023-03-22T09:38:03.589Z,4.90
2023-03-22T09:40:33.288Z,4.97
2023-03-22T09:43:04.364Z,4.43
2023-03-22T09:45:38.116Z,5.75
2023-03-22T09:48:09.318Z,4.78
2023-03-22T09:50:43.834Z,4.75
2023-03-22T09:53:14.852Z,4.90
2023-03-22T09:55:46.455Z,4.82
2023-03-22T09:58:25.422Z,4.57
2023-03-22T10:00:57.736Z,4.68
2023-03-22T10:03:51.266Z,4.60
2023-03-22T10:06:20.632Z,4.40
2023-03-22T10:08:59.529Z,4.05
2023-03-22T10:11:38.589Z,4.65
2023-03-22T10:14:21.405Z,4.15
2023-03-22T10:16:52.435Z,4.47
2023-03-22T10:19:24.402Z,4.70
2023-03-22T10:21:55.710Z,4.43
2023-03-22T10:24:44.456Z,4.72
2023-03-22T10:27:15.456Z,4.63
2023-03-22T10:29:48.760Z,4.65
2023-03-22T10:32:18.099Z,4.57
2023-03-22T10:34:46.614Z,4.75
2023-03-22T10:37:16.519Z,5.53
2023-03-22T10:39:54.004Z,4.97
2023-03-22T10:42:25.963Z,4.80
2023-03-22T10:44:56.137Z,4.80
2023-03-22T10:47:30.596Z,4.53
2023-03-22T10:50:03.499Z,5.05
2023-03-22T10:52:44.922Z,5.00
2023-03-22T10:55:15.494Z,5.10
2023-03-22T10:57:51.497Z,5.05
2023-03-22T11:00:20.884Z,5.30
2023-03-22T11:02:52.799Z,5.63
2023-03-22T11:05:23.620Z,5.63
2023-03-22T11:07:51.276Z,5.53
2023-03-22T11:10:23.337Z,5.80
2023-03-22T11:12:53.498Z,5.55
2023-03-22T11:15:26.065Z,5.82
2023-03-22T11:17:59.059Z,5.50
2023-03-22T11:20:26.375Z,5.18
2023-03-22T11:22:56.318Z,5.60
2023-03-22T11:25:30.196Z,5.47
2023-03-22T11:28:09.594Z,7.30
2023-03-22T11:30:37.525Z,6.45
2023-03-22T11:33:17.379Z,5.90
2023-03-22T11:35:46.436Z,5.97
2023-03-22T11:38:36.852Z,6.07
2023-03-22T11:41:12.717Z,5.85
2023-03-22T11:43:44.774Z,6.25
2023-03-22T11:46:12.362Z,6.00
2023-03-22T11:48:42.293Z,6.35
2023-03-22T11:51:12.692Z,6.85
2023-03-22T11:53:43.299Z,6.47
2023-03-22T11:56:15.933Z,6.85
2023-03-22T11:58:51.407Z,6.75
2023-03-22T12:01:24.441Z,5.70
2023-03-22T12:03:57.838Z,6.47
2023-03-22T12:06:29.514Z,6.65
2023-03-22T12:09:01.900Z,6.90
2023-03-22T12:11:34.358Z,6.43
2023-03-22T12:14:05.140Z,6.70
2023-03-22T12:16:37.125Z,6.10
2023-03-22T12:19:16.412Z,6.13
2023-03-22T12:21:45.200Z,6.28
2023-03-22T12:24:24.965Z,5.32
2023-03-22T12:26:58.491Z,5.22
2023-03-22T12:29:27.267Z,5.38
2023-03-22T12:32:00.287Z,5.28
2023-03-22T12:34:36.973Z,5.72
2023-03-22T12:37:09.278Z,5.47
2023-03-22T12:39:41.189Z,5.85
2023-03-22T12:42:21.908Z,5.60
2023-03-22T12:45:04.192Z,5.53
2023-03-22T12:47:39.420Z,5.22
2023-03-22T12:50:14.001Z,5.82
2023-03-22T12:52:46.254Z,5.57
2023-03-22T12:55:22.229Z,5.22
2023-03-22T12:57:54.623Z,5.20
2023-03-22T13:00:28.619Z,5.00
2023-03-22T13:03:02.211Z,5.60
2023-03-22T13:05:32.310Z,5.05
2023-03-22T13:08:03.299Z,5.35
2023-03-22T13:10:59.677Z,4.90
2023-03-22T13:13:48.821Z,4.28
2023-03-22T13:16:23.060Z,5.22
2023-03-22T13:19:17.369Z,4.75
2023-03-22T13:21:48.484Z,4.03
2023-03-22T13:24:23.994Z,4.15
2023-03-22T13:26:53.438Z,4.13
2023-03-22T13:29:27.130Z,3.92
2023-03-22T13:31:58.514Z,3.65
2023-03-22T13:34:38.276Z,3.70
2023-03-22T13:37:10.878Z,4.20
2023-03-22T13:39:39.319Z,3.97
2023-03-22T13:44:46.820Z,4.25
2023-03-22T13:47:31.688Z,3.35
2023-03-22T13:50:06.211Z,3.70
2023-03-22T13:52:38.602Z,3.50
2023-03-22T13:55:36.158Z,3.70
2023-03-22T13:58:05.606Z,3.60
2023-03-22T14:00:48.316Z,4.18
2023-03-22T14:03:23.570Z,3.55
2023-03-22T14:06:00.648Z,3.50
2023-03-22T14:08:30.397Z,3.22
2023-03-22T14:11:04.033Z,3.20
2023-03-22T14:13:36.562Z,3.40
2023-03-22T14:16:09.784Z,3.45
2023-03-22T14:18:42.160Z,3.10
2023-03-22T14:21:15.734Z,3.35
